X  Fechar Metar - Info de Aeroporto     EDDK Cologne Bonn Airport
Temperatura
17°C Temperatura
17°C Ptº Orvalho
100% Humidade



Vento
1 M/S
2 MPH
3 KM/H
2 NÓS



Calmaria
N
Condições Atuais

Nuvens principalmente dispersas Nuvens principalmente dispersas
Pressão 1011.85 (hPa) - 29.88 (inHg)
Visibilidade 5 (milha) - 8 (km)
Aeroporto
Código-Aeropoto EDDK

Localização: Cologne Bonn Airport
Distância: 56 (km)

Metar:
EDDK 210420Z AUTO VRB02KT 8000 SCT003 17/17 Q1012 TEMPO 4000 BR BKN003

Hora: 2024-06-21 06:20 CEST